createdAt,value
2023-03-17T00:01:05.307Z,5.72
2023-03-17T00:03:35.709Z,7.70
2023-03-17T00:06:04.561Z,4.82
2023-03-17T00:08:35.847Z,7.97
2023-03-17T00:11:02.558Z,5.75
2023-03-17T00:13:30.832Z,5.93
2023-03-17T00:16:02.932Z,5.47
2023-03-17T00:18:31.548Z,7.85
2023-03-17T00:20:58.751Z,7.22
2023-03-17T00:23:25.441Z,9.38
2023-03-17T00:25:54.153Z,7.22
2023-03-17T00:28:23.521Z,8.93
2023-03-17T00:30:54.689Z,7.00
2023-03-17T00:33:25.465Z,4.95
2023-03-17T00:35:52.546Z,7.50
2023-03-17T00:38:21.480Z,40.92
2023-03-17T00:40:48.146Z,51.00
2023-03-17T00:43:14.924Z,5.80
2023-03-17T00:45:42.553Z,5.53
2023-03-17T00:48:17.296Z,9.02
2023-03-17T00:50:44.980Z,9.07
2023-03-17T00:53:13.775Z,6.25
2023-03-17T00:55:41.418Z,5.20
2023-03-17T00:58:14.918Z,5.30
2023-03-17T01:00:41.478Z,5.45
2023-03-17T01:03:11.413Z,4.53
2023-03-17T01:05:39.017Z,5.32
2023-03-17T01:08:05.667Z,5.68
2023-03-17T01:10:32.643Z,7.78
2023-03-17T01:12:59.189Z,5.30
2023-03-17T01:15:30.333Z,5.38
2023-03-17T01:17:57.482Z,6.00
2023-03-17T01:20:30.803Z,5.68
2023-03-17T01:22:57.544Z,6.13
2023-03-17T01:25:24.335Z,6.53
2023-03-17T01:27:51.499Z,6.22
2023-03-17T01:30:29.223Z,6.15
2023-03-17T01:32:57.127Z,5.75
2023-03-17T01:35:24.465Z,5.32
2023-03-17T01:37:51.254Z,5.20
2023-03-17T01:40:22.144Z,6.78
2023-03-17T01:42:54.164Z,7.10
2023-03-17T01:45:59.371Z,6.75
2023-03-17T01:48:26.472Z,6.40
2023-03-17T01:50:53.469Z,5.75
2023-03-17T01:53:21.454Z,7.20
2023-03-17T01:55:48.456Z,6.75
2023-03-17T01:58:16.189Z,6.03
2023-03-17T02:00:43.941Z,6.75
2023-03-17T02:03:11.598Z,6.63
2023-03-17T02:05:38.522Z,6.78
2023-03-17T02:08:16.402Z,4.25
2023-03-17T02:10:43.364Z,4.95
2023-03-17T02:13:13.122Z,4.35
2023-03-17T02:15:42.368Z,6.60
2023-03-17T02:18:09.800Z,8.00
2023-03-17T02:20:36.494Z,4.53
2023-03-17T02:23:04.288Z,6.10
2023-03-17T02:25:35.464Z,4.50
2023-03-17T02:28:11.135Z,5.20
2023-03-17T02:30:37.683Z,5.50
2023-03-17T02:33:04.403Z,5.65
2023-03-17T02:35:31.487Z,7.55
2023-03-17T02:37:58.289Z,5.00
2023-03-17T02:40:24.931Z,5.53
2023-03-17T02:42:51.443Z,6.13
2023-03-17T02:45:18.063Z,6.07
2023-03-17T02:47:45.329Z,4.78
2023-03-17T02:50:18.896Z,5.60
2023-03-17T02:52:45.536Z,6.57
2023-03-17T02:55:12.097Z,7.00
2023-03-17T02:57:38.617Z,6.38
2023-03-17T03:00:05.929Z,8.10
2023-03-17T03:02:32.476Z,5.60
2023-03-17T03:04:59.441Z,6.93
2023-03-17T03:07:26.340Z,5.18
2023-03-17T03:09:52.830Z,6.53
2023-03-17T03:12:19.328Z,5.32
2023-03-17T03:14:45.990Z,5.43
2023-03-17T03:17:12.505Z,10.10
2023-03-17T03:19:39.367Z,5.85
2023-03-17T03:22:06.246Z,6.85
2023-03-17T03:24:32.786Z,9.10
2023-03-17T03:26:59.366Z,5.97
2023-03-17T03:29:25.839Z,7.15
2023-03-17T03:31:52.371Z,6.72
2023-03-17T03:34:19.237Z,6.20
2023-03-17T03:36:45.877Z,5.85
2023-03-17T03:39:14.422Z,5.72
2023-03-17T03:41:41.403Z,6.65
2023-03-17T03:44:07.970Z,5.47
2023-03-17T03:46:34.497Z,4.70
2023-03-17T03:49:01.222Z,4.60
2023-03-17T03:51:27.969Z,6.55
2023-03-17T03:53:54.516Z,5.80
2023-03-17T03:56:21.598Z,8.98
2023-03-17T03:58:48.120Z,9.95
2023-03-17T04:01:14.627Z,8.80
2023-03-17T04:03:41.252Z,6.82
2023-03-17T04:06:07.782Z,5.18
2023-03-17T04:08:34.320Z,13.30
2023-03-17T04:11:00.826Z,11.90
2023-03-17T04:13:27.347Z,16.02
2023-03-17T04:15:53.836Z,28.13
2023-03-17T04:18:20.366Z,6.03
2023-03-17T04:20:47.938Z,5.85
2023-03-17T04:23:14.481Z,121.28
2023-03-17T04:25:40.967Z,60.78
2023-03-17T04:28:09.000Z,33.45
2023-03-17T04:30:35.611Z,7.07
2023-03-17T04:33:02.393Z,31.00
2023-03-17T04:35:29.159Z,6.72
2023-03-17T04:37:55.996Z,5.53
2023-03-17T04:40:22.690Z,4.95
2023-03-17T04:42:49.234Z,6.30
2023-03-17T04:45:16.727Z,5.53
2023-03-17T04:47:43.775Z,9.35
2023-03-17T04:50:10.843Z,5.72
2023-03-17T04:52:37.425Z,5.25
2023-03-17T04:55:06.726Z,3.97
2023-03-17T04:57:33.220Z,5.88
2023-03-17T04:59:59.744Z,6.07
2023-03-17T05:02:26.619Z,5.80
2023-03-17T05:04:53.494Z,5.68
2023-03-17T05:07:20.010Z,7.05
2023-03-17T05:09:47.419Z,6.43
2023-03-17T05:12:14.169Z,5.45
2023-03-17T05:14:41.046Z,5.15
2023-03-17T05:17:07.672Z,4.25
2023-03-17T05:19:34.218Z,5.90
2023-03-17T05:22:01.014Z,5.35
2023-03-17T05:24:27.565Z,6.65
2023-03-17T05:26:54.112Z,7.95
2023-03-17T05:29:20.741Z,6.55
2023-03-17T05:31:47.469Z,6.00
2023-03-17T05:34:14.025Z,5.03
2023-03-17T05:36:40.673Z,5.75
2023-03-17T05:39:07.437Z,4.85
2023-03-17T05:41:33.969Z,5.68
2023-03-17T05:44:00.890Z,7.20
2023-03-17T05:46:27.439Z,4.53
2023-03-17T05:48:53.966Z,10.88
2023-03-17T05:51:21.346Z,12.25
2023-03-17T05:53:47.829Z,8.55
2023-03-17T05:56:14.390Z,6.47
2023-03-17T05:58:41.688Z,6.07
2023-03-17T06:01:08.253Z,8.65
2023-03-17T06:03:34.828Z,6.53
2023-03-17T06:06:01.621Z,5.15
2023-03-17T06:08:28.120Z,5.65
2023-03-17T06:10:54.629Z,6.63
2023-03-17T06:13:21.268Z,7.40
2023-03-17T06:15:48.625Z,5.72
2023-03-17T06:18:15.338Z,8.75
2023-03-17T06:20:41.847Z,6.03
2023-03-17T06:23:08.417Z,7.72
2023-03-17T06:25:35.435Z,5.70
2023-03-17T06:28:03.656Z,5.78
2023-03-17T06:30:33.824Z,5.50
2023-03-17T06:33:01.228Z,5.30
2023-03-17T06:35:28.570Z,7.00
2023-03-17T06:37:55.284Z,6.78
2023-03-17T06:40:22.055Z,5.35
2023-03-17T06:42:48.570Z,5.95
2023-03-17T06:45:15.495Z,5.65
2023-03-17T06:47:42.154Z,6.32
2023-03-17T06:50:09.853Z,6.38
2023-03-17T06:52:37.129Z,6.60
2023-03-17T06:55:04.912Z,5.78
2023-03-17T06:57:32.315Z,7.00
2023-03-17T06:59:58.974Z,6.00
2023-03-17T07:02:25.614Z,7.95
2023-03-17T07:04:52.290Z,5.13
2023-03-17T07:07:20.862Z,7.93
2023-03-17T07:09:48.010Z,7.90
2023-03-17T07:12:14.715Z,6.15
2023-03-17T07:14:41.738Z,6.80
2023-03-17T07:17:12.460Z,7.13
2023-03-17T07:19:39.930Z,6.75
2023-03-17T07:22:07.143Z,8.50
2023-03-17T07:24:33.701Z,6.63
2023-03-17T07:27:00.376Z,6.78
2023-03-17T07:29:27.495Z,7.43
2023-03-17T07:31:54.079Z,7.65
2023-03-17T07:34:20.657Z,6.30
2023-03-17T07:36:47.208Z,6.97
2023-03-17T07:39:13.865Z,6.65
2023-03-17T07:41:41.347Z,7.85
2023-03-17T07:44:11.302Z,4.43
2023-03-17T07:46:38.912Z,8.20
2023-03-17T07:49:06.149Z,6.97
2023-03-17T07:51:32.715Z,5.22
2023-03-17T07:54:03.965Z,5.00
2023-03-17T07:56:31.614Z,5.30
2023-03-17T07:58:59.799Z,4.57
2023-03-17T08:01:27.712Z,6.35
2023-03-17T08:03:54.938Z,6.72
2023-03-17T08:06:21.736Z,5.22
2023-03-17T08:08:48.489Z,5.72
2023-03-17T08:11:15.616Z,5.20
2023-03-17T08:13:42.519Z,6.40
2023-03-17T08:16:09.550Z,5.43
2023-03-17T08:18:36.969Z,6.05
2023-03-17T08:21:03.883Z,5.72
2023-03-17T08:23:31.055Z,5.10
2023-03-17T08:25:59.283Z,4.95
2023-03-17T08:28:26.165Z,5.55
2023-03-17T08:30:52.787Z,4.53
2023-03-17T08:33:19.497Z,7.38
2023-03-17T08:35:46.983Z,6.05
2023-03-17T08:38:13.692Z,4.93
2023-03-17T08:40:41.100Z,4.68
2023-03-17T08:43:07.748Z,3.88
2023-03-17T08:45:34.529Z,4.80
2023-03-17T08:48:01.274Z,4.13
2023-03-17T08:50:27.923Z,3.67
2023-03-17T08:52:55.064Z,4.90
2023-03-17T08:55:21.636Z,4.88
2023-03-17T08:57:48.670Z,6.57
2023-03-17T09:00:20.328Z,3.92
2023-03-17T09:02:48.094Z,5.28
2023-03-17T09:05:16.789Z,3.97
2023-03-17T09:07:43.730Z,5.30
2023-03-17T09:10:11.357Z,4.50
2023-03-17T09:12:38.196Z,6.30
2023-03-17T09:15:06.270Z,6.13
2023-03-17T09:17:33.148Z,5.53
2023-03-17T09:19:59.707Z,4.93
2023-03-17T09:22:26.273Z,6.00
2023-03-17T09:24:53.235Z,5.03
2023-03-17T09:27:19.804Z,5.65
2023-03-17T09:29:46.607Z,5.53
2023-03-17T09:32:13.127Z,8.63
2023-03-17T09:34:39.740Z,5.82
2023-03-17T09:37:06.755Z,4.60
2023-03-17T09:39:33.546Z,6.30
2023-03-17T09:42:27.036Z,4.57
2023-03-17T09:45:01.340Z,6.75
2023-03-17T09:47:47.063Z,4.65
2023-03-17T09:50:20.032Z,3.90
2023-03-17T09:52:47.605Z,4.25
2023-03-17T09:55:24.815Z,4.72
2023-03-17T09:57:52.259Z,3.33
2023-03-17T10:00:23.134Z,7.05
2023-03-17T10:02:49.677Z,3.65
2023-03-17T10:05:21.263Z,3.85
2023-03-17T10:08:29.384Z,4.50
2023-03-17T10:11:15.855Z,12.65
2023-03-17T10:13:53.150Z,3.42
2023-03-17T10:16:22.150Z,5.68
2023-03-17T10:19:07.463Z,4.60
2023-03-17T10:21:35.989Z,3.70
2023-03-17T10:24:03.603Z,3.47
2023-03-17T10:26:34.002Z,3.08
2023-03-17T10:29:04.149Z,6.10
2023-03-17T10:31:33.462Z,5.15
2023-03-17T10:34:13.285Z,6.40
2023-03-17T10:36:42.585Z,66.28
2023-03-17T10:39:12.999Z,26.13
2023-03-17T10:41:41.530Z,303.48
2023-03-17T10:44:10.015Z,20.73
2023-03-17T10:46:38.388Z,7.25
2023-03-17T10:49:17.151Z,14.75
2023-03-17T10:51:46.366Z,36.92
2023-03-17T10:54:17.929Z,79.68
2023-03-17T10:56:47.893Z,38.53
2023-03-17T10:59:33.032Z,621.95
2023-03-17T11:02:01.386Z,604.33
2023-03-17T11:04:30.643Z,711.28
2023-03-17T11:06:58.604Z,213.30
2023-03-17T11:09:28.032Z,138.20
2023-03-17T11:12:18.441Z,312.10
2023-03-17T11:14:45.054Z,612.58
2023-03-17T11:17:20.880Z,593.25
2023-03-17T11:20:11.444Z,738.13
2023-03-17T11:22:40.442Z,751.78
2023-03-17T11:25:23.230Z,8.07
2023-03-17T11:28:04.905Z,9.63
2023-03-17T11:30:34.888Z,3.63
2023-03-17T11:33:06.200Z,12.90
2023-03-17T11:35:41.322Z,86.03
2023-03-17T11:38:20.623Z,998.20
2023-03-17T11:41:18.077Z,894.33
2023-03-17T11:43:59.551Z,231.75
2023-03-17T11:46:36.922Z,2.33
2023-03-17T11:49:22.759Z,589.55
2023-03-17T11:51:56.587Z,737.40
2023-03-17T11:54:42.899Z,1089.10
2023-03-17T11:57:15.316Z,558.15
2023-03-17T11:59:47.668Z,3.35
2023-03-17T12:02:39.404Z,2.22
2023-03-17T12:05:10.451Z,516.83
2023-03-17T12:07:42.229Z,1033.88
2023-03-17T12:10:34.878Z,495.40
2023-03-17T12:13:13.519Z,651.42
2023-03-17T12:15:45.518Z,200.65
2023-03-17T12:18:18.024Z,41.95
2023-03-17T12:20:58.654Z,869.22
2023-03-17T12:23:33.119Z,1031.93
2023-03-17T12:26:14.107Z,547.78
2023-03-17T12:29:03.676Z,961.72
2023-03-17T12:31:36.018Z,616.70
2023-03-17T12:34:34.165Z,894.63
2023-03-17T12:37:02.025Z,610.00
2023-03-17T12:39:34.188Z,495.92
2023-03-17T12:42:32.778Z,812.83
2023-03-17T12:45:23.882Z,684.97
2023-03-17T12:50:25.934Z,3.15
2023-03-17T12:52:57.631Z,2.45
2023-03-17T12:55:27.900Z,2.70
2023-03-17T13:00:31.616Z,331.35
2023-03-17T13:03:23.841Z,1188.05
2023-03-17T13:05:53.883Z,1141.60
2023-03-17T13:08:28.259Z,1002.10
2023-03-17T13:11:13.830Z,1042.15
2023-03-17T13:13:50.996Z,794.50
2023-03-17T13:16:26.836Z,551.53
2023-03-17T13:19:07.405Z,680.97
2023-03-17T13:21:36.344Z,759.25
2023-03-17T13:24:21.713Z,815.80
2023-03-17T13:26:56.342Z,6.68
2023-03-17T13:29:25.761Z,1.27
2023-03-17T13:31:52.379Z,2.90
2023-03-17T13:34:19.948Z,2.65
2023-03-17T13:37:05.467Z,850.47
2023-03-17T13:39:37.964Z,793.17
2023-03-17T13:42:29.609Z,695.63
2023-03-17T13:45:16.252Z,858.17
2023-03-17T13:47:43.605Z,1001.20
2023-03-17T13:50:22.383Z,935.80
2023-03-17T13:52:53.600Z,1061.93
2023-03-17T13:55:20.469Z,915.40
2023-03-17T13:58:15.920Z,758.30
2023-03-17T14:00:50.640Z,641.05
2023-03-17T14:03:29.394Z,796.80
2023-03-17T14:05:56.494Z,716.47
2023-03-17T14:08:35.036Z,733.90
2023-03-17T14:11:04.476Z,842.30
2023-03-17T14:13:43.818Z,917.35
2023-03-17T14:16:32.356Z,918.60
2023-03-17T14:19:09.536Z,702.95
2023-03-17T14:21:36.535Z,1026.38
2023-03-17T14:24:30.062Z,594.33
2023-03-17T14:26:57.008Z,1049.03
2023-03-17T14:29:29.145Z,1145.45
2023-03-17T14:32:10.763Z,574.65
2023-03-17T14:34:48.240Z,573.10
2023-03-17T14:37:15.085Z,572.78
2023-03-17T14:39:50.171Z,572.03
2023-03-17T14:42:19.710Z,100.72
2023-03-17T14:44:46.308Z,805.85
2023-03-17T14:47:21.559Z,486.70
2023-03-17T14:49:48.455Z,1042.72
2023-03-17T14:52:29.118Z,72.82
2023-03-17T14:54:58.588Z,974.38
2023-03-17T14:57:32.738Z,1051.45
2023-03-17T15:00:32.369Z,649.55
2023-03-17T15:03:01.971Z,843.55
2023-03-17T15:05:29.170Z,1079.20
2023-03-17T15:07:56.120Z,711.88
2023-03-17T15:10:30.940Z,201.90
2023-03-17T15:13:01.798Z,477.50
2023-03-17T15:15:33.855Z,858.30
2023-03-17T15:18:04.170Z,397.65
2023-03-17T15:20:31.683Z,263.48
2023-03-17T15:23:13.446Z,693.50
2023-03-17T15:25:43.533Z,593.20
2023-03-17T15:28:22.997Z,677.90
2023-03-17T15:30:51.729Z,536.38
2023-03-17T15:33:38.324Z,534.15
2023-03-17T15:36:05.322Z,6.82
2023-03-17T15:38:39.208Z,803.15
2023-03-17T15:41:06.144Z,952.22
2023-03-17T15:43:35.734Z,543.67
2023-03-17T15:46:16.561Z,467.70
2023-03-17T15:48:43.134Z,983.10
2023-03-17T15:51:10.790Z,1009.63
2023-03-17T15:56:03.865Z,673.67
2023-03-17T15:58:30.397Z,1136.65
2023-03-17T16:00:57.981Z,192.88
2023-03-17T16:03:27.235Z,596.80
2023-03-17T16:05:53.837Z,1270.45
2023-03-17T16:08:21.777Z,856.90
2023-03-17T16:10:48.320Z,609.05
2023-03-17T16:28:40.977Z,599.70
2023-03-17T16:31:22.863Z,1170.10
2023-03-17T16:33:50.654Z,861.58
2023-03-17T16:36:21.185Z,575.13
2023-03-17T16:38:48.026Z,582.20
2023-03-17T16:41:20.685Z,562.60
2023-03-17T16:43:51.247Z,641.85
2023-03-17T16:46:18.427Z,598.38
2023-03-17T16:48:45.012Z,537.20
2023-03-17T16:51:11.853Z,596.75
2023-03-17T16:53:38.422Z,593.30
2023-03-17T16:56:10.388Z,601.20
2023-03-17T16:58:37.008Z,587.35
2023-03-17T17:01:11.234Z,586.00
2023-03-17T17:03:38.127Z,594.85
2023-03-17T17:06:06.997Z,591.60
2023-03-17T17:08:33.542Z,568.78
2023-03-17T17:11:00.061Z,578.70
2023-03-17T17:13:26.612Z,581.47
2023-03-17T17:15:53.473Z,583.67
2023-03-17T17:18:24.677Z,551.50
2023-03-17T17:20:52.404Z,558.90
2023-03-17T17:23:21.567Z,570.37
2023-03-17T17:25:49.226Z,558.60
2023-03-17T17:28:17.567Z,541.72
2023-03-17T17:30:47.822Z,578.63
2023-03-17T17:33:16.127Z,523.35
2023-03-17T17:35:43.655Z,523.30
2023-03-17T17:38:20.355Z,536.90
2023-03-17T17:40:47.530Z,577.70
2023-03-17T17:43:14.168Z,534.15
2023-03-17T17:45:41.997Z,518.10
2023-03-17T17:48:10.393Z,523.80
2023-03-17T17:50:36.927Z,529.83
2023-03-17T17:53:05.693Z,548.50
2023-03-17T17:55:33.733Z,528.95
2023-03-17T17:58:01.203Z,521.80
2023-03-17T18:00:28.993Z,548.20
2023-03-17T18:02:55.810Z,521.15
2023-03-17T18:05:22.449Z,521.10
2023-03-17T18:07:49.076Z,509.17
2023-03-17T18:10:24.924Z,522.00
2023-03-17T18:12:52.140Z,549.15
2023-03-17T18:15:19.638Z,575.50
2023-03-17T18:17:46.682Z,580.13
2023-03-17T18:20:17.148Z,524.83
2023-03-17T18:22:43.732Z,570.80
2023-03-17T18:25:11.722Z,551.55
2023-03-17T18:27:39.029Z,583.40
2023-03-17T18:30:07.606Z,561.67
2023-03-17T18:32:34.630Z,560.07
2023-03-17T18:35:05.592Z,567.53
2023-03-17T18:37:32.521Z,563.35
2023-03-17T18:40:13.340Z,559.25
2023-03-17T18:42:41.863Z,591.40
2023-03-17T18:45:09.866Z,570.60
2023-03-17T18:47:38.838Z,570.40
2023-03-17T18:50:07.044Z,569.50
2023-03-17T18:52:35.450Z,562.88
2023-03-17T18:55:02.987Z,554.17
2023-03-17T18:57:29.560Z,564.15
2023-03-17T18:59:56.235Z,590.40
2023-03-17T19:02:22.876Z,572.95
2023-03-17T19:04:49.712Z,572.55
2023-03-17T19:07:17.917Z,571.50
2023-03-17T19:09:44.731Z,572.70
2023-03-17T19:12:11.300Z,572.00
2023-03-17T19:14:38.823Z,571.70
2023-03-17T19:17:06.249Z,570.20
2023-03-17T19:19:33.605Z,571.57
2023-03-17T19:22:00.829Z,571.43
2023-03-17T19:24:27.483Z,571.47
2023-03-17T19:26:54.026Z,570.87
2023-03-17T19:29:20.604Z,570.08
2023-03-17T19:31:48.564Z,554.83
2023-03-17T19:34:15.471Z,557.17
2023-03-17T19:36:43.534Z,571.55
2023-03-17T19:39:14.005Z,573.60
2023-03-17T19:41:40.822Z,570.30
2023-03-17T19:44:07.662Z,570.97
2023-03-17T19:46:36.030Z,565.65
2023-03-17T19:49:03.084Z,561.60
2023-03-17T19:51:29.582Z,568.13
2023-03-17T19:53:56.131Z,545.17
2023-03-17T19:56:23.174Z,586.80
2023-03-17T19:58:50.051Z,585.70
2023-03-17T20:01:17.216Z,567.53
2023-03-17T20:03:43.881Z,567.15
2023-03-17T20:06:14.474Z,567.85
2023-03-17T20:08:42.721Z,567.25
2023-03-17T20:11:11.520Z,567.10
2023-03-17T20:13:38.484Z,566.67
2023-03-17T20:16:06.283Z,566.65
2023-03-17T20:18:33.031Z,565.03
2023-03-17T20:21:00.254Z,561.42
2023-03-17T20:23:26.972Z,554.75
2023-03-17T20:25:53.868Z,559.10
2023-03-17T20:28:24.335Z,581.40
2023-03-17T20:30:51.007Z,564.58
2023-03-17T20:33:17.710Z,563.65
2023-03-17T20:35:46.863Z,562.90
2023-03-17T20:38:14.648Z,562.15
2023-03-17T20:40:42.414Z,555.60
2023-03-17T20:43:09.494Z,561.85
2023-03-17T20:45:36.934Z,559.85
2023-03-17T20:48:05.006Z,559.88
2023-03-17T20:50:33.019Z,560.38
2023-03-17T20:53:00.416Z,564.38
2023-03-17T20:55:27.397Z,565.20
2023-03-17T20:57:53.939Z,565.63
2023-03-17T21:00:22.179Z,565.22
2023-03-17T21:02:50.266Z,564.75
2023-03-17T21:05:23.440Z,564.83
2023-03-17T21:07:49.994Z,565.20
2023-03-17T21:10:17.405Z,567.20
2023-03-17T21:12:44.279Z,566.90
2023-03-17T21:15:12.895Z,567.07
2023-03-17T21:17:40.135Z,565.53
2023-03-17T21:20:09.535Z,566.67
2023-03-17T21:22:36.826Z,566.20
2023-03-17T21:25:04.702Z,566.27
2023-03-17T21:27:31.325Z,566.50
2023-03-17T21:29:58.024Z,566.33
2023-03-17T21:32:24.740Z,565.60
2023-03-17T21:34:51.816Z,567.63
2023-03-17T21:37:18.767Z,566.85
2023-03-17T21:39:45.859Z,567.30
2023-03-17T21:42:12.714Z,566.75
2023-03-17T21:44:39.587Z,567.00
2023-03-17T21:47:06.146Z,565.40
2023-03-17T21:49:32.694Z,565.53
2023-03-17T21:51:59.240Z,564.83
2023-03-17T21:54:26.286Z,562.20
2023-03-17T21:56:53.435Z,561.38
2023-03-17T21:59:20.904Z,561.05
2023-03-17T22:01:47.804Z,560.13
2023-03-17T22:04:14.369Z,547.80
2023-03-17T22:06:41.218Z,568.75
2023-03-17T22:09:08.669Z,545.25
2023-03-17T22:11:35.689Z,508.67
2023-03-17T22:14:02.444Z,530.05
2023-03-17T22:16:30.732Z,555.97
2023-03-17T22:18:57.426Z,574.25
2023-03-17T22:21:25.043Z,561.90
2023-03-17T22:23:51.710Z,560.10
2023-03-17T22:26:20.808Z,563.63
2023-03-17T22:28:49.038Z,551.65
2023-03-17T22:31:16.917Z,571.50
2023-03-17T22:38:37.574Z,528.40
2023-03-17T22:41:07.826Z,552.10
2023-03-17T22:43:35.344Z,544.00
2023-03-17T22:46:01.916Z,555.65
2023-03-17T22:48:28.502Z,554.85
2023-03-17T22:50:55.181Z,552.78
2023-03-17T22:53:21.741Z,565.25
2023-03-17T22:55:48.318Z,554.47
2023-03-17T22:58:14.849Z,556.30
2023-03-17T23:00:42.404Z,552.55
2023-03-17T23:03:12.240Z,567.80
2023-03-17T23:05:38.812Z,543.60
2023-03-17T23:08:05.424Z,541.67
2023-03-17T23:10:33.673Z,509.75
2023-03-17T23:13:00.302Z,549.38
2023-03-17T23:15:27.050Z,576.10
2023-03-17T23:17:54.616Z,550.92
2023-03-17T23:20:21.157Z,545.60
2023-03-17T23:22:48.003Z,522.95
2023-03-17T23:25:14.539Z,572.92
2023-03-17T23:27:41.390Z,555.50
2023-03-17T23:30:11.289Z,547.40
2023-03-17T23:32:39.264Z,515.15
2023-03-17T23:35:07.038Z,471.80
2023-03-17T23:37:33.591Z,527.45
2023-03-17T23:40:00.854Z,548.60
2023-03-17T23:42:29.284Z,524.28
2023-03-17T23:44:56.305Z,517.95
2023-03-17T23:47:23.291Z,385.27
2023-03-17T23:49:50.010Z,445.70
2023-03-17T23:52:16.901Z,499.90
2023-03-17T23:54:44.056Z,506.13
2023-03-17T23:57:10.740Z,484.70
2023-03-17T23:59:37.305Z,355.00
